In Rescue
 
Open Full Screen Window  High Contrast Mode
Wind Gusting 00 knots
06
November 25, 2020 4:19 AM CST
Present Weather: Mist
Weather Information
Wind Direction
  330 °
Wind Speed
  06 kt (7 mph)
Wind Gust
  00 kt (0 mph)
Altimeter
29.91 in
Visibility
3/4 SM
Temperature
-00° C
32° F
Dewpoint
-00° C
32° F
Humidity
100%
1hr Rain Fall
00.00 in.
24hr Rain Fall
00.00 in.
Sky Condition
Overcast @ 100 ft
LIFR

METAR KOVL 251019Z AUTO 33006KT 3/4SM BR OVC001 M00/M00 A2991 RMK AO2

FAA Disclaimer: The data displayed is for advisory purposes only and is not to be used for flight planning or operations.